Time;durP1;ratioP1;P1;durP2;ratioP2;P2;SDS_P1;SDS_P2;PMS_P1;PMS_P2;Temp;Humidity;BMP_temperature;BMP_pressure;BME280_temperature;BME280_humidity;BME280_pressure;Samples;Min_cycle;Max_cycle;Signal;HPM_P1;HPM_P2
2023/12/24 00:00:03;;;;;;;13.20;6.00;;;;;;;6.40;49.11;97679.59;107994;1255;72140;-68
2023/12/24 00:02:30;;;;;;;12.60;5.90;;;;;;;6.54;49.04;97680.66;107892;1257;70261;-68
2023/12/24 00:04:58;;;;;;;10.60;5.80;;;;;;;6.61;49.03;97682.49;107722;1261;71485;-64
2023/12/24 00:07:25;;;;;;;11.40;6.20;;;;;;;6.54;49.15;97689.07;107885;1257;59631;-66
2023/12/24 00:09:53;;;;;;;10.10;5.40;;;;;;;6.75;48.58;97688.64;107926;1257;59562;-67
2023/12/24 00:12:21;;;;;;;14.10;5.70;;;;;;;6.73;48.98;97687.36;108012;1256;71702;-64
2023/12/24 00:14:48;;;;;;;11.20;5.50;;;;;;;6.81;48.81;97689.35;107883;1256;69516;-66
2023/12/24 00:17:16;;;;;;;11.50;5.60;;;;;;;6.76;48.71;97689.29;108149;1252;72624;-67
2023/12/24 00:19:43;;;;;;;13.30;5.80;;;;;;;6.87;48.66;97693.50;108148;1253;60953;-67
2023/12/24 00:22:12;;;;;;;10.30;5.40;;;;;;;7.02;48.31;97693.50;108032;1253;60502;-66
2023/12/24 00:24:41;;;;;;;11.10;5.20;;;;;;;6.94;48.53;97699.87;108056;1253;71869;-67
2023/12/24 00:27:09;;;;;;;13.00;5.60;;;;;;;6.85;48.69;97703.91;108069;1258;69045;-67
2023/12/24 00:29:36;;;;;;;10.70;5.80;;;;;;;6.85;48.60;97707.38;108026;1254;71450;-66
2023/12/24 00:32:04;;;;;;;9.80;5.30;;;;;;;7.01;48.35;97708.70;108114;1253;61175;-67
2023/12/24 00:34:32;;;;;;;11.50;5.40;;;;;;;6.81;48.47;97715.30;107996;1253;59580;-66
2023/12/24 00:36:59;;;;;;;10.50;5.60;;;;;;;6.95;48.40;97712.21;108099;1253;71929;-66
2023/12/24 00:39:27;;;;;;;11.90;5.10;;;;;;;6.94;48.41;97714.16;108036;1253;69097;-64
2023/12/24 00:41:55;;;;;;;9.90;5.70;;;;;;;6.96;48.35;97717.56;107906;1253;72758;-67
2023/12/24 00:44:22;;;;;;;10.50;5.20;;;;;;;6.73;48.71;97719.48;108084;1254;60151;-67
2023/12/24 00:46:50;;;;;;;11.50;5.50;;;;;;;6.56;49.11;97717.73;108058;1253;60149;-67
2023/12/24 00:49:17;;;;;;;8.50;4.80;;;;;;;6.83;48.79;97721.80;107900;1253;73036;-65
2023/12/24 00:51:45;;;;;;;10.60;5.70;;;;;;;6.89;48.82;97721.27;108068;1253;69321;-66
2023/12/24 00:54:13;;;;;;;12.30;5.80;;;;;;;6.87;48.46;97723.36;108012;1254;72423;-66
2023/12/24 00:56:40;;;;;;;13.80;5.50;;;;;;;6.78;48.78;97722.83;108071;1253;60405;-67
2023/12/24 00:59:07;;;;;;;11.80;5.60;;;;;;;6.75;48.76;97726.87;107945;1253;59972;-67
2023/12/24 01:01:35;;;;;;;10.30;5.40;;;;;;;6.93;48.41;97731.55;108113;1253;73059;-68
2023/12/24 01:04:03;;;;;;;8.20;5.00;;;;;;;6.88;48.61;97732.20;108093;1253;70120;-67
2023/12/24 01:06:30;;;;;;;12.00;5.70;;;;;;;7.00;48.33;97731.46;108111;1253;71331;-68
2023/12/24 01:08:58;;;;;;;12.50;5.10;;;;;;;7.15;48.07;97732.14;108140;1257;59611;-68
2023/12/24 01:11:25;;;;;;;9.20;5.50;;;;;;;7.13;48.09;97732.59;108011;1253;59982;-66
2023/12/24 01:13:53;;;;;;;12.10;5.10;;;;;;;7.10;47.99;97732.74;107928;1254;70933;-68
2023/12/24 01:16:20;;;;;;;14.80;6.00;;;;;;;7.04;48.19;97734.15;108070;1253;68990;-68
2023/12/24 01:18:48;;;;;;;9.80;5.70;;;;;;;7.03;48.27;97741.06;108176;1253;71405;-67
2023/12/24 01:21:15;;;;;;;11.00;5.80;;;;;;;7.11;48.13;97741.75;108114;1254;60501;-67
2023/12/24 01:23:43;;;;;;;12.10;5.50;;;;;;;6.85;48.51;97748.95;108097;1257;60023;-67
2023/12/24 01:26:10;;;;;;;13.90;5.90;;;;;;;6.67;48.55;97749.96;107945;1253;73030;-66
2023/12/24 01:28:38;;;;;;;11.10;5.50;;;;;;;6.72;48.76;97748.50;108066;1253;69243;-67
2023/12/24 01:31:05;;;;;;;9.90;5.70;;;;;;;6.79;48.74;97745.61;107824;1257;71402;-67
2023/12/24 01:33:33;;;;;;;12.50;5.50;;;;;;;6.90;48.65;97745.27;108031;1254;60812;-67
2023/12/24 01:36:01;;;;;;;9.70;4.80;;;;;;;6.95;48.41;97746.23;108051;1253;60980;-67
2023/12/24 01:38:28;;;;;;;10.90;5.30;;;;;;;6.77;48.30;97748.50;108020;1254;73206;-66
2023/12/24 01:40:55;;;;;;;10.10;5.20;;;;;;;7.01;48.05;97751.11;107977;1256;69064;-67
2023/12/24 01:43:23;;;;;;;13.70;5.80;;;;;;;7.10;47.93;97753.50;107950;1259;71336;-67
2023/12/24 01:45:50;;;;;;;11.50;5.20;;;;;;;7.10;48.08;97755.46;107957;1254;59657;-67
2023/12/24 01:48:19;;;;;;;10.70;6.00;;;;;;;7.10;48.18;97756.14;108002;1254;59176;-66
2023/12/24 01:50:47;;;;;;;10.90;5.50;;;;;;;7.00;48.00;97759.94;108057;1254;73014;-70
2023/12/24 01:53:15;;;;;;;10.00;5.30;;;;;;;7.02;48.17;97763.30;108052;1254;70602;-66
2023/12/24 01:55:44;;;;;;;8.00;4.80;;;;;;;7.03;48.20;97764.27;108048;1254;72535;-66
2023/12/24 01:58:11;;;;;;;10.00;5.30;;;;;;;6.95;48.21;97768.39;107948;1254;60917;-67
2023/12/24 02:00:40;;;;;;;9.70;5.40;;;;;;;6.81;48.22;97769.58;107811;1254;60602;-65
2023/12/24 02:03:07;;;;;;;13.60;5.00;;;;;;;6.88;48.31;97774.52;108003;1253;72660;-65
2023/12/24 02:05:35;;;;;;;11.20;5.40;;;;;;;7.03;48.11;97773.49;107848;1254;69571;-68
2023/12/24 02:08:04;;;;;;;13.40;6.40;;;;;;;7.13;48.33;97777.10;107993;1254;72770;-67
2023/12/24 02:10:31;;;;;;;10.50;5.20;;;;;;;7.11;47.90;97773.55;107884;1254;60932;-64
2023/12/24 02:12:59;;;;;;;12.30;5.60;;;;;;;7.07;48.10;97781.27;108051;1254;60435;-68
2023/12/24 02:15:28;;;;;;;10.90;5.40;;;;;;;7.15;47.85;97782.02;107950;1254;74298;-67
2023/12/24 02:17:57;;;;;;;10.90;5.10;;;;;;;6.99;48.07;97788.19;108020;1254;69242;-65
2023/12/24 02:20:25;;;;;;;11.70;5.70;;;;;;;7.01;48.22;97788.95;107967;1255;71417;-64
2023/12/24 02:22:53;;;;;;;12.60;5.40;;;;;;;7.03;48.22;97791.45;108034;1256;60572;-64
2023/12/24 02:25:21;;;;;;;10.10;5.10;;;;;;;6.73;48.45;97794.96;107904;1256;60351;-66
2023/12/24 02:28:03;;;;;;;13.10;6.70;;;;;;;6.81;48.47;97796.08;107922;1255;73125;-66
2023/12/24 02:30:36;;;;;;;17.00;7.10;;;;;;;6.73;48.55;97801.62;107932;1253;70124;-64
2023/12/24 02:33:04;;;;;;;16.70;6.80;;;;;;;6.76;48.55;97807.20;107935;1254;73148;-66
2023/12/24 02:35:33;;;;;;;15.60;6.70;;;;;;;6.78;48.46;97810.04;107974;1253;60978;-67
2023/12/24 02:38:01;;;;;;;13.50;5.50;;;;;;;6.67;48.30;97811.02;107977;1253;60366;-65
2023/12/24 02:40:28;;;;;;;15.40;6.20;;;;;;;6.82;48.41;97818.89;107945;1253;72248;-67
2023/12/24 02:42:56;;;;;;;9.90;5.30;;;;;;;6.82;48.48;97819.90;108051;1253;70333;-67
2023/12/24 02:45:23;;;;;;;11.20;5.60;;;;;;;6.66;48.51;97819.08;107896;1253;72691;-65
2023/12/24 02:47:51;;;;;;;8.60;4.60;;;;;;;6.73;48.64;97821.45;107890;1259;60373;-66
2023/12/24 02:50:19;;;;;;;9.20;5.50;;;;;;;6.64;48.64;97822.90;108019;1253;60414;-66
2023/12/24 02:52:47;;;;;;;9.90;4.10;;;;;;;6.68;48.48;97825.80;108046;1253;72861;-66
2023/12/24 02:55:14;;;;;;;8.90;5.20;;;;;;;6.78;48.74;97831.27;108073;1253;70100;-66
2023/12/24 02:57:42;;;;;;;10.00;5.00;;;;;;;6.92;48.29;97830.30;108089;1253;70925;-65
2023/12/24 03:00:11;;;;;;;10.40;5.30;;;;;;;6.97;48.31;97833.33;108021;1258;60296;-65
2023/12/24 03:02:41;;;;;;;7.90;4.80;;;;;;;6.92;47.94;97832.58;107931;1259;59129;-65
2023/12/24 03:05:09;;;;;;;9.60;4.90;;;;;;;6.93;47.98;97833.06;108122;1254;72639;-63
2023/12/24 03:07:37;;;;;;;9.80;4.70;;;;;;;7.02;48.03;97831.61;108044;1254;69168;-64
2023/12/24 03:10:05;;;;;;;10.60;4.70;;;;;;;6.91;47.88;97837.70;108040;1254;73404;-67
2023/12/24 03:12:32;;;;;;;12.80;5.90;;;;;;;7.09;48.07;97837.85;107978;1256;60345;-65
2023/12/24 03:15:00;;;;;;;11.80;4.90;;;;;;;7.11;47.71;97838.98;108061;1254;59235;-66
2023/12/24 03:17:27;;;;;;;10.60;5.10;;;;;;;7.03;47.68;97853.42;108034;1254;74069;-66
2023/12/24 03:19:55;;;;;;;12.90;5.10;;;;;;;7.19;47.42;97848.46;108033;1254;69365;-66
2023/12/24 03:22:23;;;;;;;10.80;4.50;;;;;;;7.03;47.67;97858.10;108030;1254;71516;-65
2023/12/24 03:24:51;;;;;;;14.00;5.50;;;;;;;7.03;47.85;97865.61;108055;1254;60931;-64
2023/12/24 03:27:18;;;;;;;9.00;4.80;;;;;;;7.20;47.52;97873.13;108026;1254;60305;-63
2023/12/24 03:29:46;;;;;;;14.90;5.20;;;;;;;7.19;47.33;97872.30;107958;1254;73885;-65
2023/12/24 03:32:13;;;;;;;9.80;5.50;;;;;;;7.10;47.67;97879.84;107999;1254;69852;-63
2023/12/24 03:34:41;;;;;;;16.30;6.10;;;;;;;7.05;47.57;97883.79;107970;1259;71504;-65
2023/12/24 03:37:08;;;;;;;20.90;7.40;;;;;;;7.20;47.38;97885.20;107996;1254;60873;-65
2023/12/24 03:39:36;;;;;;;17.40;6.40;;;;;;;7.17;47.56;97888.02;107929;1254;60320;-66
2023/12/24 03:42:04;;;;;;;10.20;5.20;;;;;;;7.14;47.35;97882.20;107992;1254;73774;-64
2023/12/24 03:44:32;;;;;;;12.00;5.60;;;;;;;7.30;47.35;97885.11;107995;1254;70558;-67
2023/12/24 03:46:59;;;;;;;13.80;5.40;;;;;;;7.29;47.27;97882.39;107882;1254;72431;-61
2023/12/24 03:49:26;;;;;;;9.70;5.40;;;;;;;7.12;47.61;97882.19;107968;1254;60853;-63
2023/12/24 03:51:54;;;;;;;13.10;5.60;;;;;;;7.22;47.43;97881.27;107968;1254;59237;-63
2023/12/24 03:54:22;;;;;;;12.20;4.70;;;;;;;7.30;47.05;97882.19;108056;1254;73137;-62
2023/12/24 03:56:49;;;;;;;12.30;5.40;;;;;;;7.29;47.21;97882.72;107991;1254;68816;-62
2023/12/24 03:59:17;;;;;;;10.50;5.50;;;;;;;7.19;47.34;97888.38;107938;1254;73299;-65
2023/12/24 04:01:45;;;;;;;8.00;4.60;;;;;;;7.09;47.28;97892.29;108014;1254;60460;-66
2023/12/24 04:04:13;;;;;;;9.10;4.70;;;;;;;7.00;47.49;97888.60;108000;1254;60351;-67
2023/12/24 04:06:40;;;;;;;11.00;5.50;;;;;;;7.01;47.45;97887.00;108031;1254;72610;-68
2023/12/24 04:09:09;;;;;;;11.50;5.70;;;;;;;7.24;47.30;97884.27;107878;1254;69975;-66
2023/12/24 04:11:37;;;;;;;12.90;5.70;;;;;;;7.32;47.17;97886.38;108036;1254;72676;-66
2023/12/24 04:14:04;;;;;;;13.80;5.70;;;;;;;7.44;46.83;97886.41;107932;1254;60448;-67
2023/12/24 04:16:32;;;;;;;11.20;5.80;;;;;;;7.36;47.11;97890.02;107969;1254;59535;-66
2023/12/24 04:19:00;;;;;;;12.90;5.10;;;;;;;7.23;47.06;97897.59;108071;1258;73926;-64
2023/12/24 04:21:28;;;;;;;10.00;4.80;;;;;;;7.32;46.82;97898.45;107985;1254;69938;-65
2023/12/24 04:23:56;;;;;;;11.00;5.10;;;;;;;7.26;46.87;97905.41;107985;1254;72052;-65
2023/12/24 04:26:23;;;;;;;11.70;5.40;;;;;;;7.26;46.97;97915.01;108108;1254;60891;-65
2023/12/24 04:28:52;;;;;;;9.10;5.00;;;;;;;7.17;47.49;97921.16;108198;1253;60459;-64
2023/12/24 04:31:19;;;;;;;9.10;4.00;;;;;;;7.17;47.84;97923.75;108090;1253;72228;-67
2023/12/24 04:33:47;;;;;;;10.30;4.90;;;;;;;7.03;47.84;97922.48;107970;1253;70597;-66
2023/12/24 04:36:21;;;;;;;13.20;5.10;;;;;;;7.21;48.03;97928.94;108150;1254;71820;-69
2023/12/24 04:38:48;;;;;;;13.70;4.90;;;;;;;7.24;48.06;97928.21;108109;1253;60460;-66
2023/12/24 04:41:19;;;;;;;9.80;4.40;;;;;;;7.26;48.33;97930.21;108138;1253;60241;-65
2023/12/24 04:43:47;;;;;;;11.60;5.30;;;;;;;7.19;48.48;97932.72;107948;1253;72958;-66
2023/12/24 04:46:15;;;;;;;12.80;5.80;;;;;;;7.29;47.94;97927.77;108020;1253;70109;-66
2023/12/24 04:48:43;;;;;;;10.10;5.00;;;;;;;7.30;47.85;97929.66;108068;1253;71712;-66
2023/12/24 04:51:11;;;;;;;7.10;4.40;;;;;;;7.31;47.79;97929.59;108051;1254;60594;-66
2023/12/24 04:53:38;;;;;;;9.80;4.60;;;;;;;7.15;47.29;97936.65;107918;1253;63014;-66
2023/12/24 04:56:06;;;;;;;9.80;4.20;;;;;;;7.25;47.49;97934.30;107910;1253;73810;-66
2023/12/24 04:58:33;;;;;;;9.20;4.60;;;;;;;7.26;46.91;97934.90;107949;1253;70448;-66
2023/12/24 05:01:01;;;;;;;10.90;5.00;;;;;;;7.27;47.05;97938.35;107890;1256;72170;-66
2023/12/24 05:03:31;;;;;;;7.80;4.40;;;;;;;7.29;47.01;97941.05;107877;1253;60879;-66
2023/12/24 05:05:59;;;;;;;10.00;4.80;;;;;;;7.24;46.52;97945.88;108008;1253;60434;-65
2023/12/24 05:08:27;;;;;;;10.20;4.30;;;;;;;7.28;46.77;97948.60;108055;1253;72797;-67
2023/12/24 05:10:54;;;;;;;9.80;4.80;;;;;;;7.35;46.70;97946.63;107992;1253;70204;-67
2023/12/24 05:13:22;;;;;;;8.70;4.40;;;;;;;7.28;46.44;97948.42;107888;1254;71148;-67
2023/12/24 05:15:49;;;;;;;11.30;5.00;;;;;;;7.14;46.46;97952.01;108059;1253;60437;-67
2023/12/24 05:18:17;;;;;;;7.80;4.20;;;;;;;7.07;46.77;97954.85;107996;1253;60314;-66
2023/12/24 05:20:45;;;;;;;11.40;4.90;;;;;;;7.07;46.68;97955.38;107938;1253;72581;-65
2023/12/24 05:23:13;;;;;;;9.90;4.50;;;;;;;7.18;46.42;97957.92;107987;1253;70194;-67
2023/12/24 05:25:41;;;;;;;9.70;4.80;;;;;;;7.13;46.24;97963.60;108106;1253;71447;-67
2023/12/24 05:28:09;;;;;;;8.30;4.60;;;;;;;7.16;46.44;97966.79;108015;1259;60910;-66
2023/12/24 05:30:37;;;;;;;8.90;4.00;;;;;;;7.10;46.31;97971.63;108053;1253;60483;-67
2023/12/24 05:33:04;;;;;;;8.00;4.10;;;;;;;6.92;46.56;97975.27;108068;1253;72675;-64
2023/12/24 05:35:32;;;;;;;10.70;5.30;;;;;;;7.14;46.43;97976.63;108053;1253;69167;-67
2023/12/24 05:38:02;;;;;;;9.00;4.70;;;;;;;7.14;46.19;97984.86;108128;1254;71021;-67
2023/12/24 05:40:33;;;;;;;15.10;5.10;;;;;;;6.91;46.56;97989.27;108065;1253;60284;-67
2023/12/24 05:43:01;;;;;;;7.90;4.60;;;;;;;6.87;46.57;97991.56;107938;1253;60217;-66
2023/12/24 05:45:29;;;;;;;9.70;5.20;;;;;;;6.99;46.59;97994.63;108111;1253;72595;-66
2023/12/24 05:47:57;;;;;;;11.30;5.30;;;;;;;7.07;46.67;98000.26;108009;1253;68704;-66
2023/12/24 05:50:24;;;;;;;11.30;4.70;;;;;;;7.07;46.51;98001.62;108159;1253;71785;-67
2023/12/24 05:52:53;;;;;;;11.00;5.30;;;;;;;7.04;46.68;98006.36;108132;1254;60666;-65
2023/12/24 05:55:21;;;;;;;14.00;5.10;;;;;;;7.03;46.72;98012.18;108190;1254;60366;-66
2023/12/24 05:57:49;;;;;;;8.50;4.40;;;;;;;7.12;46.30;98012.02;108036;1253;73898;-65
2023/12/24 06:00:17;;;;;;;8.90;4.50;;;;;;;7.22;46.33;98017.01;108016;1253;69203;-66
2023/12/24 06:02:44;;;;;;;9.20;4.10;;;;;;;7.30;46.16;98021.42;108013;1253;71388;-64
2023/12/24 06:05:12;;;;;;;10.50;5.20;;;;;;;7.20;46.20;98024.45;108035;1256;60842;-65
2023/12/24 06:07:40;;;;;;;12.30;5.00;;;;;;;7.13;46.33;98023.81;108148;1258;60303;-65
2023/12/24 06:10:08;;;;;;;12.50;4.90;;;;;;;7.17;46.07;98022.20;108102;1253;73891;-65
2023/12/24 06:12:36;;;;;;;8.50;4.30;;;;;;;7.25;46.17;98023.29;108307;1257;70520;-62
2023/12/24 06:15:05;;;;;;;12.30;4.40;;;;;;;7.25;46.02;98027.69;108154;1253;71559;-63
2023/12/24 06:17:32;;;;;;;11.40;4.80;;;;;;;7.18;46.04;98027.18;108198;1254;60856;-66
2023/12/24 06:20:00;;;;;;;14.70;5.90;;;;;;;7.08;46.44;98029.50;108189;1253;60385;-67
2023/12/24 06:22:28;;;;;;;11.40;5.50;;;;;;;7.22;46.22;98033.81;108073;1253;72651;-66
2023/12/24 06:24:56;;;;;;;10.40;5.50;;;;;;;7.29;46.17;98032.52;108159;1253;70888;-67
2023/12/24 06:27:23;;;;;;;10.20;5.10;;;;;;;7.26;46.38;98037.70;108076;1253;71204;-65
2023/12/24 06:29:50;;;;;;;11.40;5.30;;;;;;;7.18;46.40;98040.13;108136;1257;60310;-67
2023/12/24 06:32:18;;;;;;;10.70;5.20;;;;;;;7.07;46.56;98041.42;108245;1253;60027;-67
2023/12/24 06:34:46;;;;;;;9.50;5.00;;;;;;;7.02;46.94;98046.77;108118;1253;72901;-64
2023/12/24 06:37:13;;;;;;;12.20;5.20;;;;;;;7.00;46.81;98050.57;108078;1253;69310;-67
2023/12/24 06:39:41;;;;;;;10.40;5.20;;;;;;;7.15;46.76;98045.52;108039;1257;72690;-66
2023/12/24 06:42:08;;;;;;;12.10;5.70;;;;;;;7.10;46.83;98045.96;108090;1258;60335;-66
2023/12/24 06:44:36;;;;;;;10.60;5.40;;;;;;;7.29;46.89;98047.88;108066;1253;61068;-66
2023/12/24 06:47:03;;;;;;;12.50;5.80;;;;;;;7.24;46.75;98051.09;108042;1253;72650;-68
2023/12/24 06:49:31;;;;;;;9.60;5.20;;;;;;;7.36;46.66;98052.18;108005;1254;72491;-66
2023/12/24 06:51:58;;;;;;;10.80;5.90;;;;;;;7.46;46.69;98050.89;107893;1260;71565;-67
2023/12/24 06:54:26;;;;;;;10.30;5.30;;;;;;;7.42;46.70;98052.05;107924;1253;61325;-66
2023/12/24 06:56:53;;;;;;;13.50;5.90;;;;;;;7.13;47.16;98056.10;108083;1253;60345;-66
2023/12/24 06:59:21;;;;;;;12.60;5.50;;;;;;;7.15;47.66;98058.58;108089;1253;72678;-67
2023/12/24 07:01:49;;;;;;;13.40;5.60;;;;;;;7.13;47.48;98064.48;108006;1253;68917;-66
2023/12/24 07:04:17;;;;;;;12.90;5.80;;;;;;;7.40;47.59;98063.14;108013;1254;72428;-67
2023/12/24 07:06:44;;;;;;;11.00;4.80;;;;;;;7.49;47.37;98066.83;108074;1254;60907;-67
2023/12/24 07:09:12;;;;;;;14.10;5.80;;;;;;;7.25;47.76;98062.41;107992;1253;60268;-67
2023/12/24 07:11:39;;;;;;;11.10;5.60;;;;;;;7.29;48.09;98060.29;108073;1253;73903;-67
2023/12/24 07:14:07;;;;;;;15.30;6.20;;;;;;;7.27;48.42;98063.32;108134;1253;70460;-67
2023/12/24 07:16:34;;;;;;;14.50;6.10;;;;;;;7.29;48.51;98067.04;108108;1253;71975;-67
2023/12/24 07:19:08;;;;;;;18.00;6.40;;;;;;;7.33;48.49;98070.84;108133;1257;61051;-68
2023/12/24 07:21:36;;;;;;;12.90;5.60;;;;;;;7.28;48.92;98070.63;108152;1253;62374;-67
2023/12/24 07:24:05;;;;;;;17.90;7.00;;;;;;;7.29;48.92;98081.52;108120;1253;72663;-67
2023/12/24 07:26:32;;;;;;;16.10;6.00;;;;;;;7.24;49.13;98086.21;108160;1253;70090;-67
2023/12/24 07:29:00;;;;;;;14.30;6.80;;;;;;;7.11;49.47;98089.52;108101;1258;71398;-66
2023/12/24 07:31:28;;;;;;;14.60;6.90;;;;;;;7.03;50.00;98089.27;108098;1253;60540;-66
2023/12/24 07:33:55;;;;;;;13.30;6.50;;;;;;;6.75;50.62;98088.70;108226;1253;59501;-67
2023/12/24 07:36:23;;;;;;;18.40;7.90;;;;;;;6.65;51.34;98086.63;108117;1253;73831;-66
2023/12/24 07:38:51;;;;;;;15.00;7.20;;;;;;;6.82;51.20;98085.20;108037;1253;68803;-67
2023/12/24 07:41:18;;;;;;;16.30;7.60;;;;;;;6.89;51.24;98091.95;108053;1256;72675;-67
2023/12/24 07:43:46;;;;;;;19.40;7.10;;;;;;;7.01;51.20;98095.86;108118;1253;60326;-67
2023/12/24 07:46:13;;;;;;;15.20;7.00;;;;;;;7.16;50.87;98101.14;108252;1253;60379;-67
2023/12/24 07:48:41;;;;;;;15.70;7.20;;;;;;;7.26;50.67;98102.30;108016;1258;71440;-66
2023/12/24 07:51:08;;;;;;;15.20;6.30;;;;;;;7.37;50.19;98102.05;107958;1253;69539;-67
2023/12/24 07:53:36;;;;;;;13.20;6.30;;;;;;;7.30;50.27;98100.34;108018;1253;72418;-68
2023/12/24 07:56:04;;;;;;;12.40;6.60;;;;;;;6.94;50.67;98101.77;107979;1254;60942;-68
2023/12/24 07:58:31;;;;;;;14.00;6.40;;;;;;;7.08;50.60;98109.59;108054;1253;61002;-67
2023/12/24 08:00:59;;;;;;;14.00;6.20;;;;;;;7.06;50.46;98111.77;108006;1253;74133;-67
2023/12/24 08:03:27;;;;;;;13.70;6.50;;;;;;;7.15;50.36;98114.09;108054;1254;69954;-67
2023/12/24 08:05:54;;;;;;;13.10;6.30;;;;;;;7.08;50.47;98118.17;108016;1253;72939;-67
2023/12/24 08:08:22;;;;;;;13.20;6.40;;;;;;;7.15;50.42;98122.15;108017;1258;61160;-68
2023/12/24 08:10:50;;;;;;;19.10;6.90;;;;;;;7.35;49.86;98125.92;108041;1253;59240;-64
2023/12/24 08:13:17;;;;;;;13.20;6.00;;;;;;;7.26;50.02;98133.73;108029;1253;72655;-67
2023/12/24 08:15:45;;;;;;;12.80;6.20;;;;;;;7.28;50.04;98136.60;108082;1253;70320;-66
2023/12/24 08:18:13;;;;;;;16.30;6.00;;;;;;;7.37;49.83;98139.77;107991;1253;71360;-67
2023/12/24 08:20:41;;;;;;;12.40;6.70;;;;;;;7.32;49.91;98146.16;107973;1253;61428;-67
2023/12/24 08:23:10;;;;;;;13.70;6.20;;;;;;;7.41;49.95;98148.45;108074;1253;60337;-67
2023/12/24 08:25:38;;;;;;;17.20;6.50;;;;;;;7.47;49.72;98149.71;108110;1254;72401;-66
2023/12/24 08:28:06;;;;;;;17.20;6.50;;;;;;;7.48;49.80;98150.14;108075;1254;70620;-68
2023/12/24 08:30:33;;;;;;;12.50;5.70;;;;;;;7.54;49.67;98154.02;108190;1254;71145;-67
2023/12/24 08:33:01;;;;;;;13.90;6.80;;;;;;;7.69;49.55;98151.73;108034;1253;60387;-67
2023/12/24 08:35:29;;;;;;;14.40;6.20;;;;;;;7.75;49.34;98150.52;108049;1253;60984;-64
2023/12/24 08:37:56;;;;;;;12.80;5.90;;;;;;;7.53;49.44;98151.61;108055;1253;73141;-65
2023/12/24 08:40:27;;;;;;;13.10;5.90;;;;;;;7.71;49.18;98152.34;108044;1253;70207;-66
2023/12/24 08:42:55;;;;;;;13.60;5.80;;;;;;;7.63;49.42;98150.49;108031;1253;72521;-67
2023/12/24 08:45:23;;;;;;;10.30;5.60;;;;;;;7.70;49.36;98153.98;108055;1254;60858;-68
2023/12/24 08:47:50;;;;;;;13.40;6.10;;;;;;;7.53;49.86;98153.17;107999;1253;60358;-66
2023/12/24 08:50:18;;;;;;;13.20;5.50;;;;;;;7.39;50.02;98150.13;107965;1253;73959;-68
2023/12/24 08:52:46;;;;;;;11.70;5.20;;;;;;;7.41;50.17;98154.90;107997;1253;69021;-67
2023/12/24 08:55:15;;;;;;;13.20;6.40;;;;;;;7.24;50.52;98153.57;108069;1256;70890;-67
2023/12/24 08:57:44;;;;;;;;;;;;;;;7.35;50.41;98154.35;108019;1253;60930;-66
2023/12/24 09:00:12;;;;;;;10.80;6.00;;;;;;;7.38;50.46;98149.83;108120;1254;60517;-66
2023/12/24 09:02:39;;;;;;;9.70;5.60;;;;;;;7.42;50.21;98155.20;108101;1253;73831;-66
2023/12/24 09:05:07;;;;;;;11.50;5.20;;;;;;;7.34;50.59;98158.98;108043;1253;69538;-67
2023/12/24 09:07:35;;;;;;;11.60;5.00;;;;;;;7.40;50.67;98167.20;108105;1255;71962;-67
2023/12/24 09:10:03;;;;;;;12.40;5.40;;;;;;;7.29;50.81;98173.88;108073;1254;60537;-65
2023/12/24 09:12:31;;;;;;;10.00;5.40;;;;;;;7.08;51.85;98181.50;108124;1253;60279;-68
2023/12/24 09:14:58;;;;;;;13.40;6.20;;;;;;;7.09;52.11;98186.86;107947;1254;73782;-67
2023/12/24 09:17:26;;;;;;;14.50;5.90;;;;;;;7.15;52.10;98187.55;108058;1254;68691;-67
2023/12/24 09:19:54;;;;;;;17.30;6.30;;;;;;;7.34;51.87;98184.07;108009;1258;72695;-66
2023/12/24 09:22:21;;;;;;;9.90;5.30;;;;;;;7.28;52.00;98193.33;108047;1256;60906;-68
2023/12/24 09:24:49;;;;;;;11.60;6.40;;;;;;;7.36;51.92;98190.40;108038;1253;60338;-70
2023/12/24 09:27:16;;;;;;;11.90;6.20;;;;;;;7.36;51.89;98192.91;108121;1253;73946;-62
2023/12/24 09:29:44;;;;;;;14.40;7.00;;;;;;;7.39;51.84;98189.57;107995;1258;70130;-64
2023/12/24 09:32:11;;;;;;;14.60;6.80;;;;;;;7.38;51.84;98196.27;108006;1254;72452;-66
2023/12/24 09:34:39;;;;;;;15.40;6.80;;;;;;;7.40;51.63;98193.71;108022;1253;61133;-67
2023/12/24 09:37:06;;;;;;;16.40;7.70;;;;;;;7.39;51.48;98202.16;108013;1260;60447;-68
2023/12/24 09:39:34;;;;;;;14.60;6.60;;;;;;;7.43;51.58;98202.13;108058;1253;71582;-67
2023/12/24 09:42:04;;;;;;;13.00;6.40;;;;;;;7.62;51.11;98198.26;108125;1253;69251;-67
2023/12/24 09:44:31;;;;;;;13.10;6.60;;;;;;;7.56;51.05;98202.29;108026;1253;72693;-67
2023/12/24 09:46:59;;;;;;;13.20;7.00;;;;;;;7.62;50.60;98197.40;108129;1254;60868;-68
2023/12/24 09:49:26;;;;;;;14.20;5.90;;;;;;;7.61;50.60;98197.63;108079;1253;60345;-67
2023/12/24 09:51:54;;;;;;;14.60;6.60;;;;;;;7.67;50.19;98197.46;108125;1253;73829;-65
2023/12/24 09:54:21;;;;;;;9.70;5.60;;;;;;;7.87;50.08;98197.96;108138;1253;68895;-67
2023/12/24 09:56:49;;;;;;;14.50;6.40;;;;;;;7.83;49.93;98197.23;108115;1253;72845;-68
2023/12/24 09:59:16;;;;;;;14.10;4.90;;;;;;;7.70;49.75;98197.48;108127;1256;60504;-67
2023/12/24 10:01:44;;;;;;;13.10;5.60;;;;;;;7.40;49.60;98194.77;108134;1253;60325;-67
2023/12/24 10:06:58;;;;;;;13.30;5.30;;;;;;;4.78;56.48;98196.88;104785;1291;600804;-67
2023/12/24 10:09:47;;;;;;;15.50;6.00;;;;;;;6.21;52.70;98190.69;107167;1266;60889;-67
2023/12/24 10:12:15;;;;;;;10.10;5.90;;;;;;;6.64;51.73;98197.22;107206;1272;60350;-67
2023/12/24 10:14:54;;;;;;;13.60;6.50;;;;;;;6.77;51.16;98193.08;107170;1266;75026;-69
2023/12/24 10:17:32;;;;;;;11.10;5.60;;;;;;;6.63;51.29;98195.17;107228;1266;70457;-67
2023/12/24 10:20:03;;;;;;;12.10;5.50;;;;;;;6.58;51.28;98202.28;107153;1263;187466;-67
2023/12/24 10:22:30;;;;;;;12.30;5.60;;;;;;;6.81;50.86;98205.23;107344;1265;61744;-67
2023/12/24 10:25:02;;;;;;;13.40;6.70;;;;;;;6.98;50.40;98204.89;107491;1261;59881;-67
2023/12/24 10:27:29;;;;;;;12.50;5.50;;;;;;;6.98;50.09;98209.27;107456;1260;70770;-67
2023/12/24 10:30:12;;;;;;;12.10;5.90;;;;;;;7.19;49.76;98205.34;107466;1260;69035;-67
2023/12/24 10:32:43;;;;;;;10.00;5.70;;;;;;;7.46;49.66;98208.90;107399;1262;71305;-68
2023/12/24 10:35:11;;;;;;;11.10;5.70;;;;;;;7.49;49.37;98209.48;107357;1264;59633;-68
2023/12/24 10:37:39;;;;;;;13.90;5.40;;;;;;;7.34;49.22;98206.80;107347;1262;60215;-68
2023/12/24 10:40:08;;;;;;;11.50;5.40;;;;;;;7.37;49.12;98204.54;107396;1262;72846;-67
2023/12/24 10:42:40;;;;;;;16.60;5.90;;;;;;;7.44;48.59;98206.40;107357;1262;69029;-67
2023/12/24 10:45:08;;;;;;;12.00;5.80;;;;;;;7.44;48.60;98213.05;107302;1263;72568;-67
2023/12/24 10:47:36;;;;;;;13.00;6.20;;;;;;;7.33;48.92;98215.55;107374;1262;60847;-68
2023/12/24 10:50:05;;;;;;;11.50;5.70;;;;;;;7.19;49.13;98213.36;107436;1262;59558;-68
2023/12/24 10:52:33;;;;;;;13.00;6.00;;;;;;;7.37;48.73;98210.30;107370;1262;71382;-68
2023/12/24 10:55:01;;;;;;;13.30;6.50;;;;;;;7.48;48.78;98213.34;107354;1262;70113;-67
2023/12/24 10:57:52;;;;;;;11.30;5.50;;;;;;;7.51;48.38;98219.32;107348;1262;72667;-67
2023/12/24 11:00:20;;;;;;;18.90;7.30;;;;;;;7.53;48.90;98224.23;107331;1262;60828;-68
2023/12/24 11:02:49;;;;;;;10.10;5.50;;;;;;;7.48;49.13;98227.16;107934;1254;59997;-67
2023/12/24 11:05:44;;;;;;;14.20;6.80;;;;;;;7.58;49.10;98228.36;108044;1254;71846;-66
2023/12/24 11:08:21;;;;;;;10.40;5.10;;;;;;;7.59;49.40;98227.42;108001;1254;70592;-67
2023/12/24 11:11:03;;;;;;;10.00;5.50;;;;;;;7.60;49.05;98230.52;107981;1255;71319;-67
2023/12/24 11:13:34;;;;;;;12.60;6.00;;;;;;;7.63;49.51;98236.81;108061;1254;59827;-68
2023/12/24 11:16:06;;;;;;;10.60;5.80;;;;;;;7.72;49.34;98240.30;107985;1254;59900;-68
2023/12/24 11:18:47;;;;;;;12.40;5.70;;;;;;;7.73;49.03;98243.91;108052;1254;72914;-67
2023/12/24 11:21:18;;;;;;;13.10;6.00;;;;;;;7.88;48.95;98248.37;107992;1254;70149;-67
2023/12/24 11:24:07;;;;;;;8.70;4.50;;;;;;;8.02;48.78;98251.79;107942;1254;73014;-68
2023/12/24 11:26:38;;;;;;;10.70;5.50;;;;;;;8.00;48.27;98254.12;107973;1256;60871;-67
2023/12/24 11:29:40;;;;;;;10.10;4.80;;;;;;;7.88;48.11;98249.55;108000;1254;59508;-67
2023/12/24 11:32:26;;;;;;;11.90;5.90;;;;;;;7.77;47.92;98254.23;108023;1253;73153;-67
2023/12/24 11:34:57;;;;;;;14.60;5.70;;;;;;;7.99;47.55;98258.76;107983;1255;71039;-67